sensor_id;sensor_type;location;lat;lon;timestamp;temperature;humidity
7822;DHT22;3956;50.558;9.678;2023-05-29T00:00:03;12.80;1.00
7822;DHT22;3956;50.558;9.678;2023-05-29T00:02:34;12.70;1.00
7822;DHT22;3956;50.558;9.678;2023-05-29T00:05:02;12.80;1.00
7822;DHT22;3956;50.558;9.678;2023-05-29T00:07:32;12.70;1.00
7822;DHT22;3956;50.558;9.678;2023-05-29T00:10:02;12.60;1.00
7822;DHT22;3956;50.558;9.678;2023-05-29T00:12:34;12.50;1.00
7822;DHT22;3956;50.558;9.678;2023-05-29T00:15:09;12.50;1.00
7822;DHT22;3956;50.558;9.678;2023-05-29T00:17:37;12.50;1.00
7822;DHT22;3956;50.558;9.678;2023-05-29T00:20:07;12.50;1.00
7822;DHT22;3956;50.558;9.678;2023-05-29T00:22:40;12.40;1.00
7822;DHT22;3956;50.558;9.678;2023-05-29T00:25:10;12.30;1.00
7822;DHT22;3956;50.558;9.678;2023-05-29T00:27:38;12.40;1.00
7822;DHT22;3956;50.558;9.678;2023-05-29T00:30:09;12.40;1.00
7822;DHT22;3956;50.558;9.678;2023-05-29T00:32:48;12.40;1.00
7822;DHT22;3956;50.558;9.678;2023-05-29T00:35:26;11.80;1.00
7822;DHT22;3956;50.558;9.678;2023-05-29T00:38:00;11.60;1.00
7822;DHT22;3956;50.558;9.678;2023-05-29T00:40:30;11.70;1.00
7822;DHT22;3956;50.558;9.678;2023-05-29T00:43:04;11.60;1.00
7822;DHT22;3956;50.558;9.678;2023-05-29T00:45:32;11.50;1.00
7822;DHT22;3956;50.558;9.678;2023-05-29T00:48:03;11.40;1.00
7822;DHT22;3956;50.558;9.678;2023-05-29T00:50:31;11.10;1.00
7822;DHT22;3956;50.558;9.678;2023-05-29T00:53:03;11.10;1.00
7822;DHT22;3956;50.558;9.678;2023-05-29T00:55:39;11.20;1.00
7822;DHT22;3956;50.558;9.678;2023-05-29T00:58:08;11.30;1.00
7822;DHT22;3956;50.558;9.678;2023-05-29T01:00:39;11.40;1.00
7822;DHT22;3956;50.558;9.678;2023-05-29T01:03:12;11.40;1.00
7822;DHT22;3956;50.558;9.678;2023-05-29T01:05:44;11.40;1.00
7822;DHT22;3956;50.558;9.678;2023-05-29T01:08:20;11.50;1.00
7822;DHT22;3956;50.558;9.678;2023-05-29T01:11:00;11.40;1.00
7822;DHT22;3956;50.558;9.678;2023-05-29T01:13:37;11.40;1.00
7822;DHT22;3956;50.558;9.678;2023-05-29T01:16:24;11.40;1.00
7822;DHT22;3956;50.558;9.678;2023-05-29T01:19:35;11.30;1.00
7822;DHT22;3956;50.558;9.678;2023-05-29T01:22:12;11.30;1.00
7822;DHT22;3956;50.558;9.678;2023-05-29T01:24:53;11.40;1.00
7822;DHT22;3956;50.558;9.678;2023-05-29T01:27:35;11.30;1.00
7822;DHT22;3956;50.558;9.678;2023-05-29T01:30:04;11.30;1.00
7822;DHT22;3956;50.558;9.678;2023-05-29T01:32:36;11.40;1.00
7822;DHT22;3956;50.558;9.678;2023-05-29T01:35:08;11.40;1.00
7822;DHT22;3956;50.558;9.678;2023-05-29T01:37:37;11.40;1.00
7822;DHT22;3956;50.558;9.678;2023-05-29T01:40:20;11.30;1.00
7822;DHT22;3956;50.558;9.678;2023-05-29T01:42:52;11.30;1.00
7822;DHT22;3956;50.558;9.678;2023-05-29T01:45:25;11.20;1.00
7822;DHT22;3956;50.558;9.678;2023-05-29T01:47:54;11.10;1.00
7822;DHT22;3956;50.558;9.678;2023-05-29T01:50:24;11.00;1.00
7822;DHT22;3956;50.558;9.678;2023-05-29T01:52:52;10.90;1.00
7822;DHT22;3956;50.558;9.678;2023-05-29T01:55:25;10.70;1.00
7822;DHT22;3956;50.558;9.678;2023-05-29T01:58:01;10.70;1.00
7822;DHT22;3956;50.558;9.678;2023-05-29T02:00:30;10.80;1.00
7822;DHT22;3956;50.558;9.678;2023-05-29T02:02:59;10.80;1.00
7822;DHT22;3956;50.558;9.678;2023-05-29T02:05:29;10.80;1.00
7822;DHT22;3956;50.558;9.678;2023-05-29T02:08:02;10.80;1.00
7822;DHT22;3956;50.558;9.678;2023-05-29T02:10:36;10.80;1.00
7822;DHT22;3956;50.558;9.678;2023-05-29T02:13:08;10.90;1.00
7822;DHT22;3956;50.558;9.678;2023-05-29T02:15:46;10.80;1.00
7822;DHT22;3956;50.558;9.678;2023-05-29T02:18:23;10.90;1.00
7822;DHT22;3956;50.558;9.678;2023-05-29T02:20:52;10.90;1.00
7822;DHT22;3956;50.558;9.678;2023-05-29T02:23:20;10.80;1.00
7822;DHT22;3956;50.558;9.678;2023-05-29T02:25:49;10.70;1.00
7822;DHT22;3956;50.558;9.678;2023-05-29T02:28:18;10.60;1.00
7822;DHT22;3956;50.558;9.678;2023-05-29T02:30:47;10.60;1.00
7822;DHT22;3956;50.558;9.678;2023-05-29T02:33:18;10.50;1.00
7822;DHT22;3956;50.558;9.678;2023-05-29T02:35:54;10.50;1.00
7822;DHT22;3956;50.558;9.678;2023-05-29T02:38:32;10.30;1.00
7822;DHT22;3956;50.558;9.678;2023-05-29T02:41:00;10.20;1.00
7822;DHT22;3956;50.558;9.678;2023-05-29T02:43:30;10.00;1.00
7822;DHT22;3956;50.558;9.678;2023-05-29T02:45:59;10.00;1.00
7822;DHT22;3956;50.558;9.678;2023-05-29T02:48:31;10.10;1.00
7822;DHT22;3956;50.558;9.678;2023-05-29T02:51:01;10.00;1.00
7822;DHT22;3956;50.558;9.678;2023-05-29T02:53:32;10.00;1.00
7822;DHT22;3956;50.558;9.678;2023-05-29T02:56:04;9.80;1.00
7822;DHT22;3956;50.558;9.678;2023-05-29T02:58:39;9.80;1.00
7822;DHT22;3956;50.558;9.678;2023-05-29T03:01:36;9.80;1.00
7822;DHT22;3956;50.558;9.678;2023-05-29T03:04:15;9.70;1.00
7822;DHT22;3956;50.558;9.678;2023-05-29T03:06:44;9.60;1.00
7822;DHT22;3956;50.558;9.678;2023-05-29T03:09:14;9.60;1.00
7822;DHT22;3956;50.558;9.678;2023-05-29T03:11:43;9.60;1.00
7822;DHT22;3956;50.558;9.678;2023-05-29T03:14:18;9.70;1.00
7822;DHT22;3956;50.558;9.678;2023-05-29T03:16:48;9.80;1.00
7822;DHT22;3956;50.558;9.678;2023-05-29T03:19:17;9.80;1.00
7822;DHT22;3956;50.558;9.678;2023-05-29T03:21:45;9.80;1.00
7822;DHT22;3956;50.558;9.678;2023-05-29T03:24:14;9.80;1.00
7822;DHT22;3956;50.558;9.678;2023-05-29T03:26:42;9.90;1.00
7822;DHT22;3956;50.558;9.678;2023-05-29T03:29:12;9.60;1.00
7822;DHT22;3956;50.558;9.678;2023-05-29T03:31:54;9.70;1.00
7822;DHT22;3956;50.558;9.678;2023-05-29T03:34:25;9.70;1.00
7822;DHT22;3956;50.558;9.678;2023-05-29T03:36:54;9.80;1.00
7822;DHT22;3956;50.558;9.678;2023-05-29T03:39:23;9.90;1.00
7822;DHT22;3956;50.558;9.678;2023-05-29T03:41:52;9.80;1.00
7822;DHT22;3956;50.558;9.678;2023-05-29T03:44:21;9.80;1.00
7822;DHT22;3956;50.558;9.678;2023-05-29T03:46:53;9.80;1.00
7822;DHT22;3956;50.558;9.678;2023-05-29T03:49:23;9.90;1.00
7822;DHT22;3956;50.558;9.678;2023-05-29T03:51:54;9.80;1.00
7822;DHT22;3956;50.558;9.678;2023-05-29T03:54:25;9.70;1.00
7822;DHT22;3956;50.558;9.678;2023-05-29T03:56:56;9.70;1.00
7822;DHT22;3956;50.558;9.678;2023-05-29T03:59:28;9.80;1.00
7822;DHT22;3956;50.558;9.678;2023-05-29T04:01:58;9.80;1.00
7822;DHT22;3956;50.558;9.678;2023-05-29T04:04:26;9.90;1.00
7822;DHT22;3956;50.558;9.678;2023-05-29T04:06:55;10.00;1.00
7822;DHT22;3956;50.558;9.678;2023-05-29T04:09:25;10.10;1.00
7822;DHT22;3956;50.558;9.678;2023-05-29T04:11:55;10.00;1.00
7822;DHT22;3956;50.558;9.678;2023-05-29T04:14:23;9.90;1.00
7822;DHT22;3956;50.558;9.678;2023-05-29T04:16:52;10.00;1.00
7822;DHT22;3956;50.558;9.678;2023-05-29T04:19:26;10.10;1.00
7822;DHT22;3956;50.558;9.678;2023-05-29T04:21:54;10.20;1.00
7822;DHT22;3956;50.558;9.678;2023-05-29T04:24:22;10.10;1.00
7822;DHT22;3956;50.558;9.678;2023-05-29T04:26:55;10.10;1.00
7822;DHT22;3956;50.558;9.678;2023-05-29T04:29:31;10.30;1.00
7822;DHT22;3956;50.558;9.678;2023-05-29T04:32:03;10.30;1.00
7822;DHT22;3956;50.558;9.678;2023-05-29T04:34:34;10.30;1.00
7822;DHT22;3956;50.558;9.678;2023-05-29T04:37:03;10.30;1.00
7822;DHT22;3956;50.558;9.678;2023-05-29T04:39:32;10.40;1.00
7822;DHT22;3956;50.558;9.678;2023-05-29T04:42:02;10.40;1.00
7822;DHT22;3956;50.558;9.678;2023-05-29T04:44:30;10.50;1.00
7822;DHT22;3956;50.558;9.678;2023-05-29T04:47:03;10.50;1.00
7822;DHT22;3956;50.558;9.678;2023-05-29T04:49:34;10.70;1.00
7822;DHT22;3956;50.558;9.678;2023-05-29T04:52:05;10.60;1.00
7822;DHT22;3956;50.558;9.678;2023-05-29T04:54:34;10.70;1.00
7822;DHT22;3956;50.558;9.678;2023-05-29T04:57:02;10.80;1.00
7822;DHT22;3956;50.558;9.678;2023-05-29T04:59:34;10.80;1.00
7822;DHT22;3956;50.558;9.678;2023-05-29T05:02:05;11.00;1.00
7822;DHT22;3956;50.558;9.678;2023-05-29T05:04:37;11.10;1.00
7822;DHT22;3956;50.558;9.678;2023-05-29T05:07:07;11.10;1.00
7822;DHT22;3956;50.558;9.678;2023-05-29T05:09:35;11.20;1.00
7822;DHT22;3956;50.558;9.678;2023-05-29T05:12:06;11.40;1.00
7822;DHT22;3956;50.558;9.678;2023-05-29T05:14:36;11.30;1.00
7822;DHT22;3956;50.558;9.678;2023-05-29T05:17:08;11.10;1.00
7822;DHT22;3956;50.558;9.678;2023-05-29T05:19:47;11.30;1.00
7822;DHT22;3956;50.558;9.678;2023-05-29T05:22:20;11.30;1.00
7822;DHT22;3956;50.558;9.678;2023-05-29T05:24:51;11.40;1.00
7822;DHT22;3956;50.558;9.678;2023-05-29T05:27:21;11.50;1.00
7822;DHT22;3956;50.558;9.678;2023-05-29T05:29:53;11.60;1.00
7822;DHT22;3956;50.558;9.678;2023-05-29T05:32:27;11.60;1.00
7822;DHT22;3956;50.558;9.678;2023-05-29T05:35:28;11.70;1.00
7822;DHT22;3956;50.558;9.678;2023-05-29T05:38:19;11.80;1.00
7822;DHT22;3956;50.558;9.678;2023-05-29T05:41:19;11.80;1.00
7822;DHT22;3956;50.558;9.678;2023-05-29T05:43:50;11.90;1.00
7822;DHT22;3956;50.558;9.678;2023-05-29T05:46:18;12.00;1.00
7822;DHT22;3956;50.558;9.678;2023-05-29T05:48:48;11.90;1.00
7822;DHT22;3956;50.558;9.678;2023-05-29T05:51:19;11.90;1.00
7822;DHT22;3956;50.558;9.678;2023-05-29T05:53:49;12.10;1.00
7822;DHT22;3956;50.558;9.678;2023-05-29T05:56:19;12.30;1.00
7822;DHT22;3956;50.558;9.678;2023-05-29T05:58:50;12.30;1.00
7822;DHT22;3956;50.558;9.678;2023-05-29T06:01:22;12.40;1.00
7822;DHT22;3956;50.558;9.678;2023-05-29T06:03:50;12.40;1.00
7822;DHT22;3956;50.558;9.678;2023-05-29T06:06:21;12.40;1.00
7822;DHT22;3956;50.558;9.678;2023-05-29T06:08:50;12.40;1.00
7822;DHT22;3956;50.558;9.678;2023-05-29T06:11:23;12.70;1.00
7822;DHT22;3956;50.558;9.678;2023-05-29T06:13:57;13.10;1.00
7822;DHT22;3956;50.558;9.678;2023-05-29T06:16:28;13.40;1.00
7822;DHT22;3956;50.558;9.678;2023-05-29T06:18:57;13.80;1.00
7822;DHT22;3956;50.558;9.678;2023-05-29T06:21:34;14.20;1.00
7822;DHT22;3956;50.558;9.678;2023-05-29T06:24:06;14.30;1.00
7822;DHT22;3956;50.558;9.678;2023-05-29T06:26:36;14.40;1.00
7822;DHT22;3956;50.558;9.678;2023-05-29T06:29:12;14.50;1.00
7822;DHT22;3956;50.558;9.678;2023-05-29T06:31:42;14.70;1.00
7822;DHT22;3956;50.558;9.678;2023-05-29T06:34:12;15.10;1.00
7822;DHT22;3956;50.558;9.678;2023-05-29T06:36:42;15.30;1.00
7822;DHT22;3956;50.558;9.678;2023-05-29T06:39:13;15.50;1.00
7822;DHT22;3956;50.558;9.678;2023-05-29T06:41:42;15.60;1.00
7822;DHT22;3956;50.558;9.678;2023-05-29T06:44:13;16.00;1.00
7822;DHT22;3956;50.558;9.678;2023-05-29T06:46:41;17.80;1.00
7822;DHT22;3956;50.558;9.678;2023-05-29T06:49:11;19.30;1.00
7822;DHT22;3956;50.558;9.678;2023-05-29T06:51:39;21.20;1.00
7822;DHT22;3956;50.558;9.678;2023-05-29T06:54:12;20.80;1.00
7822;DHT22;3956;50.558;9.678;2023-05-29T06:56:46;21.70;1.00
7822;DHT22;3956;50.558;9.678;2023-05-29T07:00:06;21.10;1.00
7822;DHT22;3956;50.558;9.678;2023-05-29T07:02:51;21.70;1.00
7822;DHT22;3956;50.558;9.678;2023-05-29T07:05:21;22.10;1.00
7822;DHT22;3956;50.558;9.678;2023-05-29T07:07:57;22.00;1.00
7822;DHT22;3956;50.558;9.678;2023-05-29T07:10:30;23.20;1.00
7822;DHT22;3956;50.558;9.678;2023-05-29T07:13:21;23.10;1.00
7822;DHT22;3956;50.558;9.678;2023-05-29T07:15:50;23.40;1.00
7822;DHT22;3956;50.558;9.678;2023-05-29T07:18:19;23.90;1.00
7822;DHT22;3956;50.558;9.678;2023-05-29T07:20:47;24.10;1.00
7822;DHT22;3956;50.558;9.678;2023-05-29T07:23:17;24.40;1.00
7822;DHT22;3956;50.558;9.678;2023-05-29T07:25:47;23.50;1.00
7822;DHT22;3956;50.558;9.678;2023-05-29T07:28:16;24.10;1.00
7822;DHT22;3956;50.558;9.678;2023-05-29T07:30:48;25.20;1.00
7822;DHT22;3956;50.558;9.678;2023-05-29T07:33:16;25.90;1.00
7822;DHT22;3956;50.558;9.678;2023-05-29T07:35:45;25.50;1.00
7822;DHT22;3956;50.558;9.678;2023-05-29T07:38:14;24.10;1.00
7822;DHT22;3956;50.558;9.678;2023-05-29T07:40:42;21.80;1.00
7822;DHT22;3956;50.558;9.678;2023-05-29T07:43:12;21.80;1.00
7822;DHT22;3956;50.558;9.678;2023-05-29T07:45:41;23.70;1.00
7822;DHT22;3956;50.558;9.678;2023-05-29T07:48:12;24.80;1.00
7822;DHT22;3956;50.558;9.678;2023-05-29T07:50:47;25.10;1.00
7822;DHT22;3956;50.558;9.678;2023-05-29T07:53:18;25.80;1.00
7822;DHT22;3956;50.558;9.678;2023-05-29T07:55:51;24.40;1.00
7822;DHT22;3956;50.558;9.678;2023-05-29T07:58:42;23.40;1.00
7822;DHT22;3956;50.558;9.678;2023-05-29T08:01:12;25.40;1.00
7822;DHT22;3956;50.558;9.678;2023-05-29T08:03:42;24.80;1.00
7822;DHT22;3956;50.558;9.678;2023-05-29T08:06:17;25.00;1.00
7822;DHT22;3956;50.558;9.678;2023-05-29T08:08:55;26.00;1.00
7822;DHT22;3956;50.558;9.678;2023-05-29T08:11:47;26.00;1.00
7822;DHT22;3956;50.558;9.678;2023-05-29T08:14:26;25.20;1.00
7822;DHT22;3956;50.558;9.678;2023-05-29T08:16:56;25.60;1.00
7822;DHT22;3956;50.558;9.678;2023-05-29T08:19:31;25.60;1.00
7822;DHT22;3956;50.558;9.678;2023-05-29T08:21:59;25.50;1.00
7822;DHT22;3956;50.558;9.678;2023-05-29T08:24:31;26.90;1.00
7822;DHT22;3956;50.558;9.678;2023-05-29T08:26:59;25.70;1.00
7822;DHT22;3956;50.558;9.678;2023-05-29T08:29:32;25.70;1.00
7822;DHT22;3956;50.558;9.678;2023-05-29T08:32:05;24.80;1.00
7822;DHT22;3956;50.558;9.678;2023-05-29T08:34:33;25.40;1.00
7822;DHT22;3956;50.558;9.678;2023-05-29T08:37:01;23.50;1.00
7822;DHT22;3956;50.558;9.678;2023-05-29T08:39:33;22.60;1.00
7822;DHT22;3956;50.558;9.678;2023-05-29T08:42:07;24.50;1.00
7822;DHT22;3956;50.558;9.678;2023-05-29T08:44:40;25.80;1.00
7822;DHT22;3956;50.558;9.678;2023-05-29T08:47:08;26.00;1.00
7822;DHT22;3956;50.558;9.678;2023-05-29T08:49:42;24.60;1.00
7822;DHT22;3956;50.558;9.678;2023-05-29T08:52:15;25.90;1.00
7822;DHT22;3956;50.558;9.678;2023-05-29T08:54:44;26.40;1.00
7822;DHT22;3956;50.558;9.678;2023-05-29T08:57:17;27.00;99.90
7822;DHT22;3956;50.558;9.678;2023-05-29T08:59:47;26.90;99.90
7822;DHT22;3956;50.558;9.678;2023-05-29T09:02:19;26.80;99.90
7822;DHT22;3956;50.558;9.678;2023-05-29T09:04:57;25.30;1.00
7822;DHT22;3956;50.558;9.678;2023-05-29T09:07:31;27.50;99.90
7822;DHT22;3956;50.558;9.678;2023-05-29T09:10:00;25.20;1.00
7822;DHT22;3956;50.558;9.678;2023-05-29T09:12:45;24.20;1.00
7822;DHT22;3956;50.558;9.678;2023-05-29T09:15:20;25.50;1.00
7822;DHT22;3956;50.558;9.678;2023-05-29T09:17:51;26.80;99.90
7822;DHT22;3956;50.558;9.678;2023-05-29T09:20:21;27.40;99.90
7822;DHT22;3956;50.558;9.678;2023-05-29T09:22:55;27.20;99.90
7822;DHT22;3956;50.558;9.678;2023-05-29T09:25:26;27.30;99.90
7822;DHT22;3956;50.558;9.678;2023-05-29T09:28:05;27.50;99.90
7822;DHT22;3956;50.558;9.678;2023-05-29T09:30:59;26.90;99.90
7822;DHT22;3956;50.558;9.678;2023-05-29T09:34:06;28.10;99.90
7822;DHT22;3956;50.558;9.678;2023-05-29T09:36:48;27.10;99.90
7822;DHT22;3956;50.558;9.678;2023-05-29T09:39:23;26.90;99.90
7822;DHT22;3956;50.558;9.678;2023-05-29T09:41:54;24.70;1.00
7822;DHT22;3956;50.558;9.678;2023-05-29T09:44:26;24.30;1.00
7822;DHT22;3956;50.558;9.678;2023-05-29T09:46:59;24.00;1.00
7822;DHT22;3956;50.558;9.678;2023-05-29T09:49:31;23.90;1.00
7822;DHT22;3956;50.558;9.678;2023-05-29T09:52:00;23.40;1.00
7822;DHT22;3956;50.558;9.678;2023-05-29T09:54:41;23.30;1.00
7822;DHT22;3956;50.558;9.678;2023-05-29T09:57:36;23.20;1.00
7822;DHT22;3956;50.558;9.678;2023-05-29T10:00:15;22.60;1.00
7822;DHT22;3956;50.558;9.678;2023-05-29T10:03:13;22.70;1.00
7822;DHT22;3956;50.558;9.678;2023-05-29T10:05:49;23.00;1.00
7822;DHT22;3956;50.558;9.678;2023-05-29T10:08:37;22.70;1.00
7822;DHT22;3956;50.558;9.678;2023-05-29T10:11:17;23.20;1.00
7822;DHT22;3956;50.558;9.678;2023-05-29T10:14:14;22.20;1.00
7822;DHT22;3956;50.558;9.678;2023-05-29T10:16:46;22.40;1.00
7822;DHT22;3956;50.558;9.678;2023-05-29T10:19:42;22.60;1.00
7822;DHT22;3956;50.558;9.678;2023-05-29T10:22:14;22.70;1.00
7822;DHT22;3956;50.558;9.678;2023-05-29T10:24:52;23.20;1.00
7822;DHT22;3956;50.558;9.678;2023-05-29T10:27:33;23.00;1.00
7822;DHT22;3956;50.558;9.678;2023-05-29T10:30:43;22.90;1.00
7822;DHT22;3956;50.558;9.678;2023-05-29T10:33:42;23.40;1.00
7822;DHT22;3956;50.558;9.678;2023-05-29T10:36:19;23.50;1.00
7822;DHT22;3956;50.558;9.678;2023-05-29T10:38:57;23.10;1.00
7822;DHT22;3956;50.558;9.678;2023-05-29T10:41:40;22.70;1.00
7822;DHT22;3956;50.558;9.678;2023-05-29T10:44:40;22.70;1.00
7822;DHT22;3956;50.558;9.678;2023-05-29T10:47:10;23.00;1.00
7822;DHT22;3956;50.558;9.678;2023-05-29T10:49:49;23.40;1.00
7822;DHT22;3956;50.558;9.678;2023-05-29T10:52:20;23.20;1.00
7822;DHT22;3956;50.558;9.678;2023-05-29T10:57:17;22.50;1.00
7822;DHT22;3956;50.558;9.678;2023-05-29T11:00:10;23.10;1.00
7822;DHT22;3956;50.558;9.678;2023-05-29T11:03:07;23.10;1.00
7822;DHT22;3956;50.558;9.678;2023-05-29T11:05:56;23.10;1.00
7822;DHT22;3956;50.558;9.678;2023-05-29T11:08:32;22.70;1.00
7822;DHT22;3956;50.558;9.678;2023-05-29T11:11:05;23.00;1.00
7822;DHT22;3956;50.558;9.678;2023-05-29T11:13:39;23.20;1.00
7822;DHT22;3956;50.558;9.678;2023-05-29T11:16:13;23.60;1.00
7822;DHT22;3956;50.558;9.678;2023-05-29T11:18:43;23.50;1.00
7822;DHT22;3956;50.558;9.678;2023-05-29T11:21:29;23.50;1.00
7822;DHT22;3956;50.558;9.678;2023-05-29T11:24:02;23.60;1.00
7822;DHT22;3956;50.558;9.678;2023-05-29T11:26:40;23.20;1.00
7822;DHT22;3956;50.558;9.678;2023-05-29T11:29:15;22.10;1.00
7822;DHT22;3956;50.558;9.678;2023-05-29T11:31:46;23.30;1.00
7822;DHT22;3956;50.558;9.678;2023-05-29T11:34:17;23.60;1.00
7822;DHT22;3956;50.558;9.678;2023-05-29T11:39:57;23.80;1.00
7822;DHT22;3956;50.558;9.678;2023-05-29T11:42:33;24.00;1.00
7822;DHT22;3956;50.558;9.678;2023-05-29T11:45:13;24.20;1.00
7822;DHT22;3956;50.558;9.678;2023-05-29T11:47:52;23.90;1.00
7822;DHT22;3956;50.558;9.678;2023-05-29T11:50:22;24.00;1.00
7822;DHT22;3956;50.558;9.678;2023-05-29T11:52:52;24.00;1.00
7822;DHT22;3956;50.558;9.678;2023-05-29T11:55:28;23.90;1.00
7822;DHT22;3956;50.558;9.678;2023-05-29T11:57:59;23.70;1.00
7822;DHT22;3956;50.558;9.678;2023-05-29T12:00:38;23.40;1.00
7822;DHT22;3956;50.558;9.678;2023-05-29T12:03:10;23.80;1.00
7822;DHT22;3956;50.558;9.678;2023-05-29T12:05:49;23.00;1.00
7822;DHT22;3956;50.558;9.678;2023-05-29T12:08:23;23.60;1.00
7822;DHT22;3956;50.558;9.678;2023-05-29T12:11:04;22.80;1.00
7822;DHT22;3956;50.558;9.678;2023-05-29T12:13:56;23.60;1.00
7822;DHT22;3956;50.558;9.678;2023-05-29T12:16:28;23.80;1.00
7822;DHT22;3956;50.558;9.678;2023-05-29T12:18:59;24.10;1.00
7822;DHT22;3956;50.558;9.678;2023-05-29T12:21:41;24.00;1.00
7822;DHT22;3956;50.558;9.678;2023-05-29T12:24:14;23.80;1.00
7822;DHT22;3956;50.558;9.678;2023-05-29T12:33:32;23.70;1.00
7822;DHT22;3956;50.558;9.678;2023-05-29T12:36:05;24.00;1.00
7822;DHT22;3956;50.558;9.678;2023-05-29T12:38:47;24.20;1.00
7822;DHT22;3956;50.558;9.678;2023-05-29T12:41:25;24.10;1.00
7822;DHT22;3956;50.558;9.678;2023-05-29T12:43:58;24.20;1.00
7822;DHT22;3956;50.558;9.678;2023-05-29T12:46:44;24.10;1.00
7822;DHT22;3956;50.558;9.678;2023-05-29T12:49:21;23.90;1.00
7822;DHT22;3956;50.558;9.678;2023-05-29T12:51:53;23.70;1.00
7822;DHT22;3956;50.558;9.678;2023-05-29T12:54:22;24.10;1.00
7822;DHT22;3956;50.558;9.678;2023-05-29T12:56:50;24.10;1.00
7822;DHT22;3956;50.558;9.678;2023-05-29T12:59:28;24.20;1.00
7822;DHT22;3956;50.558;9.678;2023-05-29T13:02:29;23.60;1.00
7822;DHT22;3956;50.558;9.678;2023-05-29T13:05:00;24.10;1.00
7822;DHT22;3956;50.558;9.678;2023-05-29T13:07:32;24.20;1.00
7822;DHT22;3956;50.558;9.678;2023-05-29T13:10:18;23.90;1.00
7822;DHT22;3956;50.558;9.678;2023-05-29T13:13:00;23.80;1.00
7822;DHT22;3956;50.558;9.678;2023-05-29T13:15:54;24.30;1.00
7822;DHT22;3956;50.558;9.678;2023-05-29T13:18:23;24.10;1.00
7822;DHT22;3956;50.558;9.678;2023-05-29T13:20:56;24.40;1.00
7822;DHT22;3956;50.558;9.678;2023-05-29T13:23:27;24.40;1.00
7822;DHT22;3956;50.558;9.678;2023-05-29T13:25:55;24.30;1.00
7822;DHT22;3956;50.558;9.678;2023-05-29T13:28:26;24.10;1.00
7822;DHT22;3956;50.558;9.678;2023-05-29T13:30:56;24.30;1.00
7822;DHT22;3956;50.558;9.678;2023-05-29T13:33:24;24.00;1.00
7822;DHT22;3956;50.558;9.678;2023-05-29T13:36:01;24.20;1.00
7822;DHT22;3956;50.558;9.678;2023-05-29T13:38:30;24.10;1.00
7822;DHT22;3956;50.558;9.678;2023-05-29T13:41:00;24.20;1.00
7822;DHT22;3956;50.558;9.678;2023-05-29T13:43:34;23.20;1.00
7822;DHT22;3956;50.558;9.678;2023-05-29T13:46:47;24.10;1.00
7822;DHT22;3956;50.558;9.678;2023-05-29T13:49:47;24.20;1.00
7822;DHT22;3956;50.558;9.678;2023-05-29T13:52:16;24.50;1.00
7822;DHT22;3956;50.558;9.678;2023-05-29T13:54:52;24.00;1.00
7822;DHT22;3956;50.558;9.678;2023-05-29T14:01:35;24.00;1.00
7822;DHT22;3956;50.558;9.678;2023-05-29T14:04:28;24.60;1.00
7822;DHT22;3956;50.558;9.678;2023-05-29T14:07:15;24.70;1.00
7822;DHT22;3956;50.558;9.678;2023-05-29T14:09:53;23.80;1.00
7822;DHT22;3956;50.558;9.678;2023-05-29T14:12:37;24.20;1.00
7822;DHT22;3956;50.558;9.678;2023-05-29T14:15:14;24.30;1.00
7822;DHT22;3956;50.558;9.678;2023-05-29T14:18:04;24.40;1.00
7822;DHT22;3956;50.558;9.678;2023-05-29T14:20:50;24.40;1.00
7822;DHT22;3956;50.558;9.678;2023-05-29T14:23:18;24.70;1.00
7822;DHT22;3956;50.558;9.678;2023-05-29T14:25:48;24.10;1.00
7822;DHT22;3956;50.558;9.678;2023-05-29T14:28:18;23.60;1.00
7822;DHT22;3956;50.558;9.678;2023-05-29T14:30:46;24.00;1.00
7822;DHT22;3956;50.558;9.678;2023-05-29T14:33:30;24.20;1.00
7822;DHT22;3956;50.558;9.678;2023-05-29T14:36:07;23.40;1.00
7822;DHT22;3956;50.558;9.678;2023-05-29T14:38:40;23.20;1.00
7822;DHT22;3956;50.558;9.678;2023-05-29T14:41:18;23.30;1.00
7822;DHT22;3956;50.558;9.678;2023-05-29T14:43:52;24.20;1.00
7822;DHT22;3956;50.558;9.678;2023-05-29T14:46:24;24.20;1.00
7822;DHT22;3956;50.558;9.678;2023-05-29T14:48:57;23.40;1.00
7822;DHT22;3956;50.558;9.678;2023-05-29T14:51:28;23.90;1.00
7822;DHT22;3956;50.558;9.678;2023-05-29T14:53:57;23.90;1.00
7822;DHT22;3956;50.558;9.678;2023-05-29T14:56:30;23.60;1.00
7822;DHT22;3956;50.558;9.678;2023-05-29T14:59:08;23.30;1.00
7822;DHT22;3956;50.558;9.678;2023-05-29T15:01:42;23.90;1.00
7822;DHT22;3956;50.558;9.678;2023-05-29T15:04:12;23.60;1.00
7822;DHT22;3956;50.558;9.678;2023-05-29T15:06:42;23.60;1.00
7822;DHT22;3956;50.558;9.678;2023-05-29T15:09:18;24.00;1.00
7822;DHT22;3956;50.558;9.678;2023-05-29T15:11:47;23.70;1.00
7822;DHT22;3956;50.558;9.678;2023-05-29T15:14:17;23.70;1.00
7822;DHT22;3956;50.558;9.678;2023-05-29T15:16:45;23.80;1.00
7822;DHT22;3956;50.558;9.678;2023-05-29T15:19:15;24.00;1.00
7822;DHT22;3956;50.558;9.678;2023-05-29T15:21:45;24.00;1.00
7822;DHT22;3956;50.558;9.678;2023-05-29T15:24:21;23.90;1.00
7822;DHT22;3956;50.558;9.678;2023-05-29T15:27:18;24.10;1.00
7822;DHT22;3956;50.558;9.678;2023-05-29T15:30:10;23.80;1.00
7822;DHT22;3956;50.558;9.678;2023-05-29T15:33:07;22.90;1.00
7822;DHT22;3956;50.558;9.678;2023-05-29T15:36:34;22.70;1.00
7822;DHT22;3956;50.558;9.678;2023-05-29T15:39:03;22.60;1.00
7822;DHT22;3956;50.558;9.678;2023-05-29T15:41:32;23.30;1.00
7822;DHT22;3956;50.558;9.678;2023-05-29T15:44:04;22.60;1.00
7822;DHT22;3956;50.558;9.678;2023-05-29T15:46:32;22.90;1.00
7822;DHT22;3956;50.558;9.678;2023-05-29T15:49:02;22.30;1.00
7822;DHT22;3956;50.558;9.678;2023-05-29T15:51:34;23.10;1.00
7822;DHT22;3956;50.558;9.678;2023-05-29T15:54:08;23.00;1.00
7822;DHT22;3956;50.558;9.678;2023-05-29T15:56:43;22.80;1.00
7822;DHT22;3956;50.558;9.678;2023-05-29T15:59:16;23.20;1.00
7822;DHT22;3956;50.558;9.678;2023-05-29T16:01:47;23.40;1.00
7822;DHT22;3956;50.558;9.678;2023-05-29T16:04:19;23.20;1.00
7822;DHT22;3956;50.558;9.678;2023-05-29T16:06:50;23.50;1.00
7822;DHT22;3956;50.558;9.678;2023-05-29T16:09:22;23.10;1.00
7822;DHT22;3956;50.558;9.678;2023-05-29T16:11:58;23.40;1.00
7822;DHT22;3956;50.558;9.678;2023-05-29T16:14:28;23.30;1.00
7822;DHT22;3956;50.558;9.678;2023-05-29T16:16:57;23.00;1.00
7822;DHT22;3956;50.558;9.678;2023-05-29T16:19:26;22.90;1.00
7822;DHT22;3956;50.558;9.678;2023-05-29T16:21:59;22.90;1.00
7822;DHT22;3956;50.558;9.678;2023-05-29T16:24:30;22.80;1.00
7822;DHT22;3956;50.558;9.678;2023-05-29T16:27:24;22.70;1.00
7822;DHT22;3956;50.558;9.678;2023-05-29T16:30:03;22.70;1.00
7822;DHT22;3956;50.558;9.678;2023-05-29T16:32:33;22.50;1.00
7822;DHT22;3956;50.558;9.678;2023-05-29T16:35:02;22.50;1.00
7822;DHT22;3956;50.558;9.678;2023-05-29T16:37:30;22.50;1.00
7822;DHT22;3956;50.558;9.678;2023-05-29T16:39:58;22.50;1.00
7822;DHT22;3956;50.558;9.678;2023-05-29T16:42:27;22.60;1.00
7822;DHT22;3956;50.558;9.678;2023-05-29T16:44:55;22.00;1.00
7822;DHT22;3956;50.558;9.678;2023-05-29T16:47:36;22.30;1.00
7822;DHT22;3956;50.558;9.678;2023-05-29T16:50:49;22.30;1.00
7822;DHT22;3956;50.558;9.678;2023-05-29T16:53:19;22.20;1.00
7822;DHT22;3956;50.558;9.678;2023-05-29T16:55:47;22.20;1.00
7822;DHT22;3956;50.558;9.678;2023-05-29T16:58:17;22.30;1.00
7822;DHT22;3956;50.558;9.678;2023-05-29T17:00:49;22.30;1.00
7822;DHT22;3956;50.558;9.678;2023-05-29T17:03:21;22.20;1.00
7822;DHT22;3956;50.558;9.678;2023-05-29T17:05:50;22.10;1.00
7822;DHT22;3956;50.558;9.678;2023-05-29T17:08:19;22.10;1.00
7822;DHT22;3956;50.558;9.678;2023-05-29T17:10:59;22.10;1.00
7822;DHT22;3956;50.558;9.678;2023-05-29T17:13:31;22.10;1.00
7822;DHT22;3956;50.558;9.678;2023-05-29T17:16:01;22.10;1.00
7822;DHT22;3956;50.558;9.678;2023-05-29T17:18:36;22.00;1.00
7822;DHT22;3956;50.558;9.678;2023-05-29T17:21:06;22.00;1.00
7822;DHT22;3956;50.558;9.678;2023-05-29T17:23:36;22.00;1.00